createdAt,value
2018-08-07T00:01:55.082Z,8.77
2018-08-07T00:06:57.278Z,9.20
2018-08-07T00:11:59.417Z,9.80
2018-08-07T00:17:01.606Z,10.13
2018-08-07T00:22:03.936Z,10.73
2018-08-07T00:27:06.117Z,10.70
2018-08-07T00:32:08.494Z,10.23
2018-08-07T00:37:10.680Z,10.33
2018-08-07T00:42:12.874Z,9.77
2018-08-07T00:47:15.029Z,9.90
2018-08-07T00:52:17.202Z,10.60
2018-08-07T00:57:19.514Z,10.27
2018-08-07T01:02:21.730Z,10.70
2018-08-07T01:07:23.963Z,9.47
2018-08-07T01:12:26.157Z,9.60
2018-08-07T01:17:28.378Z,9.00
2018-08-07T01:22:30.581Z,9.10
2018-08-07T01:27:32.813Z,10.27
2018-08-07T01:32:35.353Z,10.50
2018-08-07T01:37:38.151Z,11.03
2018-08-07T01:42:40.843Z,11.90
2018-08-07T01:47:43.054Z,10.90
2018-08-07T01:52:45.281Z,10.63
2018-08-07T01:57:47.488Z,10.80
2018-08-07T02:02:50.106Z,10.13
2018-08-07T02:07:52.292Z,11.40
2018-08-07T02:12:54.453Z,10.40
2018-08-07T02:17:56.631Z,10.37
2018-08-07T02:22:58.810Z,10.77
2018-08-07T02:28:00.982Z,11.50
2018-08-07T02:33:03.171Z,10.00
2018-08-07T02:38:05.362Z,9.60
2018-08-07T02:43:07.841Z,10.40
2018-08-07T02:48:09.978Z,10.40
2018-08-07T02:53:12.181Z,10.00
2018-08-07T02:58:14.341Z,9.43
2018-08-07T03:03:16.502Z,9.97
2018-08-07T03:08:18.681Z,9.30
2018-08-07T03:13:20.892Z,10.70
2018-08-07T03:18:23.078Z,11.60
2018-08-07T03:23:25.257Z,10.17
2018-08-07T03:33:36.401Z,11.10
2018-08-07T03:38:38.597Z,9.87
2018-08-07T03:43:40.794Z,9.67
2018-08-07T03:48:42.994Z,9.83
2018-08-07T03:53:45.187Z,9.90
2018-08-07T03:58:47.364Z,9.50
2018-08-07T04:03:49.555Z,10.77
2018-08-07T04:08:51.710Z,10.13
2018-08-07T04:13:53.878Z,10.90
2018-08-07T04:18:56.048Z,9.53
2018-08-07T04:23:58.206Z,10.53
2018-08-07T04:29:00.370Z,10.50
2018-08-07T04:34:02.517Z,11.60
2018-08-07T04:39:07.317Z,11.80
2018-08-07T04:44:09.650Z,10.80
2018-08-07T04:49:11.828Z,10.77
2018-08-07T04:54:14.000Z,9.77
2018-08-07T04:59:16.140Z,10.47
2018-08-07T05:04:18.332Z,9.60
2018-08-07T05:09:20.499Z,11.00
2018-08-07T05:14:22.658Z,11.43
2018-08-07T05:19:24.815Z,10.43
2018-08-07T05:24:27.008Z,10.17
2018-08-07T05:29:29.158Z,10.43
2018-08-07T05:34:31.382Z,10.87
2018-08-07T05:39:33.623Z,12.77
2018-08-07T05:44:35.813Z,10.80
2018-08-07T05:49:37.969Z,10.20
2018-08-07T05:54:40.142Z,11.03
2018-08-07T05:59:42.309Z,10.33
2018-08-07T06:04:44.453Z,10.23
2018-08-07T06:09:46.663Z,9.63
2018-08-07T06:14:48.873Z,9.60
2018-08-07T06:19:51.053Z,9.77
2018-08-07T06:24:53.260Z,8.93
2018-08-07T06:29:55.457Z,7.47
2018-08-07T06:34:57.641Z,7.93
2018-08-07T06:39:59.824Z,7.83
2018-08-07T06:45:02.074Z,8.27
2018-08-07T06:50:07.749Z,8.27
2018-08-07T06:55:10.557Z,8.47
2018-08-07T07:00:22.857Z,9.90
2018-08-07T07:05:25.057Z,9.20
2018-08-07T07:10:27.203Z,10.23
2018-08-07T07:15:29.379Z,9.80
2018-08-07T07:20:31.522Z,9.90
2018-08-07T07:25:33.665Z,9.07
2018-08-07T07:30:35.834Z,8.53
2018-08-07T07:35:38.025Z,9.93
2018-08-07T07:40:40.226Z,9.93
2018-08-07T07:45:42.380Z,9.83
2018-08-07T07:50:44.557Z,9.63
2018-08-07T07:55:46.760Z,9.90
2018-08-07T08:00:48.941Z,10.30
2018-08-07T08:05:51.129Z,9.77
2018-08-07T08:10:53.418Z,10.00
2018-08-07T08:15:55.595Z,9.90
2018-08-07T08:20:57.783Z,10.30
2018-08-07T08:25:59.950Z,10.37
2018-08-07T08:31:02.116Z,10.13
2018-08-07T08:36:04.297Z,10.80
2018-08-07T08:41:06.445Z,9.90
2018-08-07T08:46:08.657Z,10.63
2018-08-07T08:51:10.893Z,10.40
2018-08-07T08:56:13.053Z,10.20
2018-08-07T09:01:15.241Z,10.17
2018-08-07T09:06:17.415Z,11.30
2018-08-07T09:11:19.625Z,9.77
2018-08-07T09:16:21.786Z,9.43
2018-08-07T09:21:23.913Z,10.00
2018-08-07T09:26:26.129Z,9.10
2018-08-07T09:31:28.413Z,10.07
2018-08-07T09:36:30.589Z,9.20
2018-08-07T09:41:32.881Z,9.80
2018-08-07T09:46:35.101Z,9.73
2018-08-07T09:51:38.015Z,11.20
2018-08-07T09:57:13.105Z,10.07
2018-08-07T10:02:49.593Z,9.20
2018-08-07T10:07:51.745Z,9.40
2018-08-07T10:12:53.889Z,9.33
2018-08-07T10:17:56.098Z,9.70
2018-08-07T10:22:58.274Z,8.80
2018-08-07T10:28:00.409Z,8.37
2018-08-07T10:33:02.617Z,8.83
2018-08-07T10:38:04.791Z,9.00
2018-08-07T10:43:07.094Z,8.97
2018-08-07T10:48:09.173Z,8.47
2018-08-07T10:53:11.312Z,8.67
2018-08-07T10:58:13.496Z,8.50
2018-08-07T11:03:15.717Z,8.63
2018-08-07T11:08:17.910Z,8.40
2018-08-07T11:13:20.112Z,8.47
2018-08-07T11:18:22.281Z,8.00
2018-08-07T11:23:24.475Z,8.00
2018-08-07T11:28:26.642Z,7.97
2018-08-07T11:33:28.825Z,8.20
2018-08-07T11:38:31.046Z,7.83
2018-08-07T11:43:33.226Z,7.93
2018-08-07T11:48:35.420Z,8.00
2018-08-07T11:53:37.584Z,7.80
2018-08-07T11:58:39.753Z,8.27
2018-08-07T12:03:41.909Z,7.80
2018-08-07T12:08:44.082Z,7.80
2018-08-07T12:13:46.230Z,8.03
2018-08-07T12:18:48.378Z,8.27
2018-08-07T12:23:50.528Z,8.37
2018-08-07T12:28:52.692Z,8.60
2018-08-07T12:33:54.846Z,8.90
2018-08-07T12:38:56.997Z,9.00
2018-08-07T12:43:59.160Z,9.60
2018-08-07T12:49:01.297Z,8.90
2018-08-07T12:54:03.445Z,9.50
2018-08-07T12:59:05.641Z,8.53
2018-08-07T13:04:08.048Z,9.53
2018-08-07T13:09:11.852Z,9.37
2018-08-07T13:14:14.066Z,9.40
2018-08-07T13:19:16.242Z,9.53
2018-08-07T13:24:18.412Z,10.07
2018-08-07T13:29:20.577Z,11.20
2018-08-07T13:34:22.738Z,9.83
2018-08-07T13:39:25.019Z,9.50
2018-08-07T13:44:27.214Z,9.30
2018-08-07T13:49:29.405Z,10.03
2018-08-07T13:54:31.597Z,9.00
2018-08-07T13:59:33.810Z,9.37
2018-08-07T14:04:36.005Z,9.17
2018-08-07T14:09:38.201Z,9.17
2018-08-07T14:14:40.405Z,10.17
2018-08-07T14:19:42.549Z,11.10
2018-08-07T14:24:44.841Z,15.57
2018-08-07T14:29:47.064Z,27.10
2018-08-07T14:34:49.241Z,17.07
2018-08-07T14:39:51.437Z,14.20
2018-08-07T14:44:53.593Z,23.60
2018-08-07T14:49:55.793Z,27.97
2018-08-07T14:54:57.987Z,28.87
2018-08-07T15:00:00.226Z,24.03
2018-08-07T15:05:02.422Z,19.60
2018-08-07T15:10:06.854Z,30.07
2018-08-07T15:15:13.045Z,25.10
2018-08-07T15:20:16.965Z,21.80
2018-08-07T15:25:19.879Z,25.17
2018-08-07T15:30:23.329Z,23.97
2018-08-07T15:35:26.961Z,22.67
2018-08-07T15:40:29.146Z,26.27
2018-08-07T15:45:31.371Z,30.67
2018-08-07T15:50:33.495Z,26.50
2018-08-07T15:55:35.705Z,27.50
2018-08-07T16:00:37.913Z,25.30
2018-08-07T16:05:40.219Z,24.03
2018-08-07T16:10:42.405Z,23.53
2018-08-07T16:15:44.617Z,22.80
2018-08-07T16:20:46.837Z,18.80
2018-08-07T16:25:49.001Z,14.57
2018-08-07T16:30:51.190Z,11.83
2018-08-07T16:35:53.373Z,10.23
2018-08-07T16:40:55.588Z,9.20
2018-08-07T16:45:57.774Z,9.00
2018-08-07T16:50:59.949Z,9.20
2018-08-07T16:56:02.142Z,9.00
2018-08-07T17:01:04.449Z,8.80
2018-08-07T17:06:06.645Z,11.53
2018-08-07T17:11:08.861Z,27.07
2018-08-07T17:16:11.074Z,7.30
2018-08-07T17:21:13.237Z,5.90
2018-08-07T17:26:15.509Z,5.80
2018-08-07T17:31:17.801Z,5.50
2018-08-07T17:36:19.978Z,4.97
2018-08-07T17:41:22.153Z,5.47
2018-08-07T17:46:24.370Z,4.60
2018-08-07T17:51:26.628Z,4.03
2018-08-07T17:56:28.801Z,5.20
2018-08-07T18:01:31.053Z,4.60
2018-08-07T18:06:33.257Z,5.10
2018-08-07T18:11:35.891Z,4.90
2018-08-07T18:16:38.077Z,4.60
2018-08-07T18:21:40.261Z,4.90
2018-08-07T18:26:42.481Z,4.90
2018-08-07T18:31:44.669Z,5.90
2018-08-07T18:36:46.966Z,5.70
2018-08-07T18:41:49.137Z,6.30
2018-08-07T18:46:51.289Z,6.07
2018-08-07T18:51:53.500Z,6.73
2018-08-07T18:56:55.822Z,6.30
2018-08-07T19:01:57.998Z,6.30
2018-08-07T19:07:00.168Z,6.40
2018-08-07T19:12:02.361Z,6.20
2018-08-07T19:17:04.657Z,6.30
2018-08-07T19:22:06.880Z,6.40
2018-08-07T19:27:09.043Z,6.27
2018-08-07T19:32:11.304Z,6.03
2018-08-07T19:37:13.469Z,6.20
2018-08-07T19:42:15.665Z,5.97
2018-08-07T19:47:17.825Z,6.30
2018-08-07T19:52:20.033Z,5.97
2018-08-07T19:57:22.217Z,5.70
2018-08-07T20:02:24.478Z,5.77
2018-08-07T20:07:26.691Z,5.80
2018-08-07T20:12:28.866Z,6.20
2018-08-07T20:17:31.109Z,5.33
2018-08-07T20:22:33.267Z,5.90
2018-08-07T20:27:35.505Z,6.03
2018-08-07T20:32:37.879Z,6.07
2018-08-07T20:37:40.074Z,5.50
2018-08-07T20:42:42.470Z,5.93
2018-08-07T20:47:44.629Z,6.03
2018-08-07T20:52:47.050Z,6.40
2018-08-07T20:57:49.242Z,6.20
2018-08-07T21:02:51.422Z,6.17
2018-08-07T21:07:53.617Z,6.30
2018-08-07T21:12:55.999Z,5.83
2018-08-07T21:17:58.154Z,6.73
2018-08-07T21:23:00.310Z,6.03
2018-08-07T21:28:02.466Z,6.20
2018-08-07T21:33:04.634Z,6.47
2018-08-07T21:38:06.782Z,6.67
2018-08-07T21:43:08.917Z,7.00
2018-08-07T21:48:11.065Z,6.73
2018-08-07T21:53:13.193Z,6.37
2018-08-07T21:58:15.405Z,6.57
2018-08-07T22:03:17.693Z,6.60
2018-08-07T22:08:19.873Z,6.57
2018-08-07T22:13:22.002Z,7.10
2018-08-07T22:18:24.169Z,6.93
2018-08-07T22:23:26.353Z,6.60
2018-08-07T22:28:28.505Z,7.37
2018-08-07T22:33:30.657Z,7.27
2018-08-07T22:38:32.799Z,6.80
2018-08-07T22:43:34.952Z,7.20
2018-08-07T22:48:37.077Z,7.60
2018-08-07T22:53:39.240Z,7.60
2018-08-07T22:58:41.401Z,7.47
2018-08-07T23:03:43.596Z,7.57
2018-08-07T23:08:45.778Z,7.77
2018-08-07T23:13:47.941Z,7.50
2018-08-07T23:18:50.093Z,8.00
2018-08-07T23:23:52.244Z,7.60
2018-08-07T23:28:54.389Z,7.63
2018-08-07T23:33:56.540Z,6.97
2018-08-07T23:38:58.714Z,6.10
2018-08-07T23:44:00.859Z,5.30
2018-08-07T23:49:03.038Z,6.37
2018-08-07T23:54:05.492Z,6.90
2018-08-07T23:59:07.625Z,6.47
